sensor_id;sensor_type;location;lat;lon;timestamp;P1;durP1;ratioP1;P2;durP2;ratioP2
12052;SDS011;6087;48.982;12.064;2022-08-03T00:01:54;2.17;;;1.98;;
12052;SDS011;6087;48.982;12.064;2022-08-03T00:04:21;2.22;;;2.03;;
12052;SDS011;6087;48.982;12.064;2022-08-03T00:06:48;2.20;;;2.00;;
12052;SDS011;6087;48.982;12.064;2022-08-03T00:09:15;1.90;;;1.80;;
12052;SDS011;6087;48.982;12.064;2022-08-03T00:11:43;2.92;;;2.05;;
12052;SDS011;6087;48.982;12.064;2022-08-03T00:14:10;3.95;;;2.20;;
12052;SDS011;6087;48.982;12.064;2022-08-03T00:16:37;3.85;;;2.17;;
12052;SDS011;6087;48.982;12.064;2022-08-03T00:19:04;2.60;;;2.00;;
12052;SDS011;6087;48.982;12.064;2022-08-03T00:21:30;2.15;;;2.05;;
12052;SDS011;6087;48.982;12.064;2022-08-03T00:23:58;2.08;;;1.98;;
12052;SDS011;6087;48.982;12.064;2022-08-03T00:26:25;4.18;;;2.28;;
12052;SDS011;6087;48.982;12.064;2022-08-03T00:28:53;2.10;;;1.90;;
12052;SDS011;6087;48.982;12.064;2022-08-03T00:31:20;1.92;;;1.83;;
12052;SDS011;6087;48.982;12.064;2022-08-03T00:33:47;2.65;;;2.22;;
12052;SDS011;6087;48.982;12.064;2022-08-03T00:36:14;4.20;;;2.10;;
12052;SDS011;6087;48.982;12.064;2022-08-03T00:38:41;2.13;;;1.90;;
12052;SDS011;6087;48.982;12.064;2022-08-03T00:41:08;3.83;;;2.03;;
12052;SDS011;6087;48.982;12.064;2022-08-03T00:43:35;2.10;;;2.00;;
12052;SDS011;6087;48.982;12.064;2022-08-03T00:46:03;2.13;;;1.95;;
12052;SDS011;6087;48.982;12.064;2022-08-03T00:48:30;2.47;;;2.28;;
12052;SDS011;6087;48.982;12.064;2022-08-03T00:50:57;2.45;;;2.35;;
12052;SDS011;6087;48.982;12.064;2022-08-03T00:53:24;2.40;;;2.20;;
12052;SDS011;6087;48.982;12.064;2022-08-03T00:55:52;2.55;;;2.38;;
12052;SDS011;6087;48.982;12.064;2022-08-03T00:58:19;2.70;;;2.20;;
12052;SDS011;6087;48.982;12.064;2022-08-03T01:00:46;2.53;;;2.30;;
12052;SDS011;6087;48.982;12.064;2022-08-03T01:03:14;1.92;;;1.80;;
12052;SDS011;6087;48.982;12.064;2022-08-03T01:05:44;2.33;;;2.13;;
12052;SDS011;6087;48.982;12.064;2022-08-03T01:08:19;2.60;;;2.40;;
12052;SDS011;6087;48.982;12.064;2022-08-03T01:10:52;2.42;;;2.22;;
12052;SDS011;6087;48.982;12.064;2022-08-03T01:13:26;3.28;;;2.00;;
12052;SDS011;6087;48.982;12.064;2022-08-03T01:15:58;2.40;;;2.00;;
12052;SDS011;6087;48.982;12.064;2022-08-03T01:18:34;2.30;;;2.03;;
12052;SDS011;6087;48.982;12.064;2022-08-03T01:21:07;2.47;;;2.10;;
12052;SDS011;6087;48.982;12.064;2022-08-03T01:23:45;3.33;;;2.47;;
12052;SDS011;6087;48.982;12.064;2022-08-03T01:26:30;2.55;;;2.25;;
12052;SDS011;6087;48.982;12.064;2022-08-03T01:29:18;2.60;;;2.40;;
12052;SDS011;6087;48.982;12.064;2022-08-03T01:32:07;2.53;;;2.33;;
12052;SDS011;6087;48.982;12.064;2022-08-03T01:34:40;4.60;;;4.20;;
12052;SDS011;6087;48.982;12.064;2022-08-03T01:37:11;3.92;;;3.30;;
12052;SDS011;6087;48.982;12.064;2022-08-03T01:39:41;2.03;;;1.90;;
12052;SDS011;6087;48.982;12.064;2022-08-03T01:42:09;2.45;;;2.25;;
12052;SDS011;6087;48.982;12.064;2022-08-03T01:44:41;2.60;;;2.40;;
12052;SDS011;6087;48.982;12.064;2022-08-03T01:47:10;2.50;;;2.30;;
12052;SDS011;6087;48.982;12.064;2022-08-03T01:49:39;2.65;;;2.45;;
12052;SDS011;6087;48.982;12.064;2022-08-03T01:52:10;2.70;;;2.50;;
12052;SDS011;6087;48.982;12.064;2022-08-03T01:54:39;2.65;;;2.45;;
12052;SDS011;6087;48.982;12.064;2022-08-03T01:57:09;3.00;;;2.67;;
12052;SDS011;6087;48.982;12.064;2022-08-03T01:59:37;2.55;;;2.05;;
12052;SDS011;6087;48.982;12.064;2022-08-03T02:02:07;2.78;;;2.58;;
12052;SDS011;6087;48.982;12.064;2022-08-03T02:04:36;2.20;;;2.10;;
12052;SDS011;6087;48.982;12.064;2022-08-03T02:07:06;2.50;;;2.30;;
12052;SDS011;6087;48.982;12.064;2022-08-03T02:09:36;3.10;;;2.90;;
12052;SDS011;6087;48.982;12.064;2022-08-03T02:12:05;2.70;;;2.50;;
12052;SDS011;6087;48.982;12.064;2022-08-03T02:14:34;2.65;;;2.33;;
12052;SDS011;6087;48.982;12.064;2022-08-03T02:17:01;2.78;;;2.50;;
12052;SDS011;6087;48.982;12.064;2022-08-03T02:19:31;3.13;;;2.83;;
12052;SDS011;6087;48.982;12.064;2022-08-03T02:21:59;2.75;;;2.42;;
12052;SDS011;6087;48.982;12.064;2022-08-03T02:24:27;2.83;;;2.53;;
12052;SDS011;6087;48.982;12.064;2022-08-03T02:26:55;3.13;;;2.80;;
12052;SDS011;6087;48.982;12.064;2022-08-03T02:29:23;2.42;;;2.22;;
12052;SDS011;6087;48.982;12.064;2022-08-03T02:31:53;2.38;;;2.17;;
12052;SDS011;6087;48.982;12.064;2022-08-03T02:34:25;2.88;;;2.65;;
12052;SDS011;6087;48.982;12.064;2022-08-03T02:36:56;2.80;;;2.60;;
12052;SDS011;6087;48.982;12.064;2022-08-03T02:39:24;2.60;;;2.40;;
12052;SDS011;6087;48.982;12.064;2022-08-03T02:41:55;4.10;;;2.78;;
12052;SDS011;6087;48.982;12.064;2022-08-03T02:44:27;3.28;;;2.97;;
12052;SDS011;6087;48.982;12.064;2022-08-03T02:46:59;2.72;;;2.53;;
12052;SDS011;6087;48.982;12.064;2022-08-03T02:49:29;3.08;;;2.50;;
12052;SDS011;6087;48.982;12.064;2022-08-03T02:51:59;2.88;;;2.67;;
12052;SDS011;6087;48.982;12.064;2022-08-03T02:54:28;2.80;;;2.60;;
12052;SDS011;6087;48.982;12.064;2022-08-03T02:56:57;3.38;;;2.40;;
12052;SDS011;6087;48.982;12.064;2022-08-03T02:59:26;2.60;;;2.40;;
12052;SDS011;6087;48.982;12.064;2022-08-03T03:01:55;2.60;;;2.40;;
12052;SDS011;6087;48.982;12.064;2022-08-03T03:04:24;2.88;;;2.67;;
12052;SDS011;6087;48.982;12.064;2022-08-03T03:06:52;3.22;;;2.70;;
12052;SDS011;6087;48.982;12.064;2022-08-03T03:09:21;2.47;;;2.28;;
12052;SDS011;6087;48.982;12.064;2022-08-03T03:11:48;2.85;;;2.53;;
12052;SDS011;6087;48.982;12.064;2022-08-03T03:14:17;2.97;;;2.63;;
12052;SDS011;6087;48.982;12.064;2022-08-03T03:16:45;3.08;;;2.70;;
12052;SDS011;6087;48.982;12.064;2022-08-03T03:19:13;3.85;;;2.75;;
12052;SDS011;6087;48.982;12.064;2022-08-03T03:21:43;2.92;;;2.72;;
12052;SDS011;6087;48.982;12.064;2022-08-03T03:24:11;3.35;;;3.05;;
12052;SDS011;6087;48.982;12.064;2022-08-03T03:26:40;2.90;;;2.67;;
12052;SDS011;6087;48.982;12.064;2022-08-03T03:29:08;2.67;;;2.47;;
12052;SDS011;6087;48.982;12.064;2022-08-03T03:31:36;4.75;;;2.72;;
12052;SDS011;6087;48.982;12.064;2022-08-03T03:34:03;3.00;;;2.80;;
12052;SDS011;6087;48.982;12.064;2022-08-03T03:36:30;5.05;;;3.00;;
12052;SDS011;6087;48.982;12.064;2022-08-03T03:38:57;2.95;;;2.67;;
12052;SDS011;6087;48.982;12.064;2022-08-03T03:41:24;4.25;;;2.80;;
12052;SDS011;6087;48.982;12.064;2022-08-03T03:43:52;2.97;;;2.53;;
12052;SDS011;6087;48.982;12.064;2022-08-03T03:46:20;3.88;;;3.00;;
12052;SDS011;6087;48.982;12.064;2022-08-03T03:48:47;3.00;;;2.80;;
12052;SDS011;6087;48.982;12.064;2022-08-03T03:51:14;6.03;;;2.90;;
12052;SDS011;6087;48.982;12.064;2022-08-03T03:53:52;4.85;;;2.80;;
12052;SDS011;6087;48.982;12.064;2022-08-03T03:56:20;4.53;;;2.83;;
12052;SDS011;6087;48.982;12.064;2022-08-03T03:58:47;3.35;;;2.65;;
12052;SDS011;6087;48.982;12.064;2022-08-03T04:01:15;3.20;;;3.00;;
12052;SDS011;6087;48.982;12.064;2022-08-03T04:03:43;3.53;;;3.22;;
12052;SDS011;6087;48.982;12.064;2022-08-03T04:06:10;3.78;;;3.33;;
12052;SDS011;6087;48.982;12.064;2022-08-03T04:09:10;4.00;;;3.10;;
12052;SDS011;6087;48.982;12.064;2022-08-03T04:11:56;3.45;;;3.10;;
12052;SDS011;6087;48.982;12.064;2022-08-03T04:14:26;3.58;;;3.28;;
12052;SDS011;6087;48.982;12.064;2022-08-03T04:17:00;5.65;;;3.40;;
12052;SDS011;6087;48.982;12.064;2022-08-03T04:19:31;3.10;;;2.90;;
12052;SDS011;6087;48.982;12.064;2022-08-03T04:22:03;3.20;;;2.90;;
12052;SDS011;6087;48.982;12.064;2022-08-03T04:24:33;3.00;;;2.80;;
12052;SDS011;6087;48.982;12.064;2022-08-03T04:27:04;3.33;;;2.97;;
12052;SDS011;6087;48.982;12.064;2022-08-03T04:29:34;3.22;;;2.85;;
12052;SDS011;6087;48.982;12.064;2022-08-03T04:32:06;4.88;;;3.17;;
12052;SDS011;6087;48.982;12.064;2022-08-03T04:34:34;3.35;;;3.05;;
12052;SDS011;6087;48.982;12.064;2022-08-03T04:37:01;3.35;;;3.13;;
12052;SDS011;6087;48.982;12.064;2022-08-03T04:39:32;3.05;;;2.83;;
12052;SDS011;6087;48.982;12.064;2022-08-03T04:42:02;2.97;;;2.78;;
12052;SDS011;6087;48.982;12.064;2022-08-03T04:44:33;3.45;;;3.00;;
12052;SDS011;6087;48.982;12.064;2022-08-03T04:47:02;4.38;;;2.88;;
12052;SDS011;6087;48.982;12.064;2022-08-03T04:49:31;3.28;;;2.85;;
12052;SDS011;6087;48.982;12.064;2022-08-03T04:51:58;3.55;;;3.13;;
12052;SDS011;6087;48.982;12.064;2022-08-03T04:54:25;3.03;;;2.72;;
12052;SDS011;6087;48.982;12.064;2022-08-03T04:56:52;3.78;;;3.00;;
12052;SDS011;6087;48.982;12.064;2022-08-03T04:59:19;4.30;;;3.13;;
12052;SDS011;6087;48.982;12.064;2022-08-03T05:01:46;3.28;;;2.78;;
12052;SDS011;6087;48.982;12.064;2022-08-03T05:04:13;3.42;;;2.40;;
12052;SDS011;6087;48.982;12.064;2022-08-03T05:06:41;3.85;;;2.92;;
12052;SDS011;6087;48.982;12.064;2022-08-03T05:09:08;4.43;;;2.97;;
12052;SDS011;6087;48.982;12.064;2022-08-03T05:11:36;3.67;;;2.70;;
12052;SDS011;6087;48.982;12.064;2022-08-03T05:14:03;4.45;;;2.90;;
12052;SDS011;6087;48.982;12.064;2022-08-03T05:16:30;3.38;;;3.08;;
12052;SDS011;6087;48.982;12.064;2022-08-03T05:18:57;3.30;;;3.00;;
12052;SDS011;6087;48.982;12.064;2022-08-03T05:21:24;3.70;;;3.40;;
12052;SDS011;6087;48.982;12.064;2022-08-03T05:23:52;3.50;;;2.92;;
12052;SDS011;6087;48.982;12.064;2022-08-03T05:26:19;2.83;;;2.63;;
12052;SDS011;6087;48.982;12.064;2022-08-03T05:28:46;2.65;;;2.45;;
12052;SDS011;6087;48.982;12.064;2022-08-03T05:31:13;3.95;;;2.95;;
12052;SDS011;6087;48.982;12.064;2022-08-03T05:33:39;3.65;;;3.00;;
12052;SDS011;6087;48.982;12.064;2022-08-03T05:36:08;3.22;;;2.95;;
12052;SDS011;6087;48.982;12.064;2022-08-03T05:38:36;4.43;;;3.30;;
12052;SDS011;6087;48.982;12.064;2022-08-03T05:41:05;3.13;;;2.88;;
12052;SDS011;6087;48.982;12.064;2022-08-03T05:43:31;3.38;;;3.08;;
12052;SDS011;6087;48.982;12.064;2022-08-03T05:45:58;3.10;;;2.65;;
12052;SDS011;6087;48.982;12.064;2022-08-03T05:48:26;3.13;;;2.92;;
12052;SDS011;6087;48.982;12.064;2022-08-03T05:50:52;3.33;;;3.03;;
12052;SDS011;6087;48.982;12.064;2022-08-03T05:53:19;3.17;;;2.95;;
12052;SDS011;6087;48.982;12.064;2022-08-03T05:55:46;4.57;;;3.17;;
12052;SDS011;6087;48.982;12.064;2022-08-03T05:58:14;3.22;;;2.72;;
12052;SDS011;6087;48.982;12.064;2022-08-03T06:00:41;3.40;;;3.10;;
12052;SDS011;6087;48.982;12.064;2022-08-03T06:03:08;3.60;;;3.15;;
12052;SDS011;6087;48.982;12.064;2022-08-03T06:05:35;3.35;;;2.95;;
12052;SDS011;6087;48.982;12.064;2022-08-03T06:08:03;4.15;;;3.05;;
12052;SDS011;6087;48.982;12.064;2022-08-03T06:10:30;3.95;;;3.38;;
12052;SDS011;6087;48.982;12.064;2022-08-03T06:12:57;3.20;;;2.90;;
12052;SDS011;6087;48.982;12.064;2022-08-03T06:15:25;4.03;;;2.83;;
12052;SDS011;6087;48.982;12.064;2022-08-03T06:17:52;2.92;;;2.72;;
12052;SDS011;6087;48.982;12.064;2022-08-03T06:20:21;3.72;;;2.40;;
12052;SDS011;6087;48.982;12.064;2022-08-03T06:22:48;2.70;;;2.50;;
12052;SDS011;6087;48.982;12.064;2022-08-03T06:25:15;2.85;;;2.65;;
12052;SDS011;6087;48.982;12.064;2022-08-03T06:27:43;2.67;;;2.47;;
12052;SDS011;6087;48.982;12.064;2022-08-03T06:30:10;2.95;;;2.67;;
12052;SDS011;6087;48.982;12.064;2022-08-03T06:32:39;3.10;;;2.55;;
12052;SDS011;6087;48.982;12.064;2022-08-03T06:35:06;2.63;;;2.42;;
12052;SDS011;6087;48.982;12.064;2022-08-03T06:37:40;5.30;;;2.75;;
12052;SDS011;6087;48.982;12.064;2022-08-03T06:40:09;2.72;;;2.53;;
12052;SDS011;6087;48.982;12.064;2022-08-03T06:42:37;2.38;;;2.17;;
12052;SDS011;6087;48.982;12.064;2022-08-03T06:45:04;3.45;;;2.88;;
12052;SDS011;6087;48.982;12.064;2022-08-03T06:47:33;2.50;;;2.30;;
12052;SDS011;6087;48.982;12.064;2022-08-03T06:50:01;3.25;;;2.75;;
12052;SDS011;6087;48.982;12.064;2022-08-03T06:52:28;3.55;;;2.38;;
12052;SDS011;6087;48.982;12.064;2022-08-03T06:54:55;2.30;;;2.10;;
12052;SDS011;6087;48.982;12.064;2022-08-03T06:57:22;2.72;;;2.28;;
12052;SDS011;6087;48.982;12.064;2022-08-03T06:59:49;3.63;;;2.20;;
12052;SDS011;6087;48.982;12.064;2022-08-03T07:02:16;3.00;;;2.70;;
12052;SDS011;6087;48.982;12.064;2022-08-03T07:04:44;3.03;;;2.30;;
12052;SDS011;6087;48.982;12.064;2022-08-03T07:07:12;2.50;;;2.25;;
12052;SDS011;6087;48.982;12.064;2022-08-03T07:09:39;2.40;;;2.20;;
12052;SDS011;6087;48.982;12.064;2022-08-03T07:12:06;2.95;;;2.00;;
12052;SDS011;6087;48.982;12.064;2022-08-03T07:14:33;2.15;;;2.05;;
12052;SDS011;6087;48.982;12.064;2022-08-03T07:17:00;4.72;;;2.35;;
12052;SDS011;6087;48.982;12.064;2022-08-03T07:19:27;2.50;;;2.30;;
12052;SDS011;6087;48.982;12.064;2022-08-03T07:21:53;2.67;;;2.03;;
12052;SDS011;6087;48.982;12.064;2022-08-03T07:24:22;2.63;;;2.00;;
12052;SDS011;6087;48.982;12.064;2022-08-03T07:26:49;1.75;;;1.60;;
12052;SDS011;6087;48.982;12.064;2022-08-03T07:29:15;4.40;;;2.20;;
12052;SDS011;6087;48.982;12.064;2022-08-03T07:31:42;3.03;;;1.83;;
12052;SDS011;6087;48.982;12.064;2022-08-03T07:34:09;2.03;;;1.83;;
12052;SDS011;6087;48.982;12.064;2022-08-03T07:36:37;3.83;;;2.13;;
12052;SDS011;6087;48.982;12.064;2022-08-03T07:39:04;3.17;;;1.80;;
12052;SDS011;6087;48.982;12.064;2022-08-03T07:41:33;1.75;;;1.65;;
12052;SDS011;6087;48.982;12.064;2022-08-03T07:44:00;1.80;;;1.65;;
12052;SDS011;6087;48.982;12.064;2022-08-03T07:46:27;1.75;;;1.65;;
12052;SDS011;6087;48.982;12.064;2022-08-03T07:48:54;2.70;;;1.77;;
12052;SDS011;6087;48.982;12.064;2022-08-03T07:51:20;2.00;;;1.80;;
12052;SDS011;6087;48.982;12.064;2022-08-03T07:53:47;2.22;;;1.83;;
12052;SDS011;6087;48.982;12.064;2022-08-03T07:56:14;2.58;;;1.92;;
12052;SDS011;6087;48.982;12.064;2022-08-03T07:58:42;1.98;;;1.88;;
12052;SDS011;6087;48.982;12.064;2022-08-03T08:01:09;1.55;;;1.45;;
12052;SDS011;6087;48.982;12.064;2022-08-03T08:03:36;2.13;;;1.92;;
12052;SDS011;6087;48.982;12.064;2022-08-03T08:06:03;1.67;;;1.58;;
12052;SDS011;6087;48.982;12.064;2022-08-03T08:08:30;2.38;;;1.90;;
12052;SDS011;6087;48.982;12.064;2022-08-03T08:10:57;2.10;;;1.80;;
12052;SDS011;6087;48.982;12.064;2022-08-03T08:13:24;2.40;;;1.95;;
12052;SDS011;6087;48.982;12.064;2022-08-03T08:15:53;2.90;;;2.08;;
12052;SDS011;6087;48.982;12.064;2022-08-03T08:18:20;1.88;;;1.77;;
12052;SDS011;6087;48.982;12.064;2022-08-03T08:20:48;1.98;;;1.80;;
12052;SDS011;6087;48.982;12.064;2022-08-03T08:23:15;2.78;;;2.00;;
12052;SDS011;6087;48.982;12.064;2022-08-03T08:25:47;2.53;;;1.70;;
12052;SDS011;6087;48.982;12.064;2022-08-03T08:28:15;1.88;;;1.77;;
12052;SDS011;6087;48.982;12.064;2022-08-03T08:30:43;1.98;;;1.88;;
12052;SDS011;6087;48.982;12.064;2022-08-03T08:33:12;4.30;;;1.70;;
12052;SDS011;6087;48.982;12.064;2022-08-03T08:35:39;2.55;;;1.70;;
12052;SDS011;6087;48.982;12.064;2022-08-03T08:38:06;1.40;;;1.30;;
12052;SDS011;6087;48.982;12.064;2022-08-03T08:40:32;2.78;;;1.60;;
12052;SDS011;6087;48.982;12.064;2022-08-03T08:43:00;1.60;;;1.50;;
12052;SDS011;6087;48.982;12.064;2022-08-03T08:45:27;2.17;;;1.58;;
12052;SDS011;6087;48.982;12.064;2022-08-03T08:47:54;1.95;;;1.77;;
12052;SDS011;6087;48.982;12.064;2022-08-03T08:50:24;2.38;;;1.80;;
12052;SDS011;6087;48.982;12.064;2022-08-03T08:52:51;2.50;;;2.30;;
12052;SDS011;6087;48.982;12.064;2022-08-03T08:55:20;1.90;;;1.80;;
12052;SDS011;6087;48.982;12.064;2022-08-03T08:57:49;1.85;;;1.75;;
12052;SDS011;6087;48.982;12.064;2022-08-03T09:00:19;1.83;;;1.52;;
12052;SDS011;6087;48.982;12.064;2022-08-03T09:02:46;2.08;;;1.52;;
12052;SDS011;6087;48.982;12.064;2022-08-03T09:05:13;2.60;;;2.05;;
12052;SDS011;6087;48.982;12.064;2022-08-03T09:07:43;1.50;;;1.40;;
12052;SDS011;6087;48.982;12.064;2022-08-03T09:10:11;1.60;;;1.50;;
12052;SDS011;6087;48.982;12.064;2022-08-03T09:12:41;3.10;;;1.77;;
12052;SDS011;6087;48.982;12.064;2022-08-03T09:15:15;1.92;;;1.70;;
12052;SDS011;6087;48.982;12.064;2022-08-03T09:17:43;2.15;;;1.58;;
12052;SDS011;6087;48.982;12.064;2022-08-03T09:20:11;2.55;;;1.77;;
12052;SDS011;6087;48.982;12.064;2022-08-03T09:22:51;3.50;;;1.75;;
12052;SDS011;6087;48.982;12.064;2022-08-03T09:25:25;1.70;;;1.33;;
12052;SDS011;6087;48.982;12.064;2022-08-03T09:27:53;1.52;;;1.42;;
12052;SDS011;6087;48.982;12.064;2022-08-03T09:30:20;2.13;;;1.35;;
12052;SDS011;6087;48.982;12.064;2022-08-03T09:32:47;2.92;;;1.23;;
12052;SDS011;6087;48.982;12.064;2022-08-03T09:35:14;2.38;;;1.42;;
12052;SDS011;6087;48.982;12.064;2022-08-03T09:37:41;1.63;;;1.52;;
12052;SDS011;6087;48.982;12.064;2022-08-03T09:40:10;1.50;;;1.40;;
12052;SDS011;6087;48.982;12.064;2022-08-03T09:42:57;1.67;;;1.40;;
12052;SDS011;6087;48.982;12.064;2022-08-03T09:45:26;1.48;;;1.38;;
12052;SDS011;6087;48.982;12.064;2022-08-03T09:47:54;2.47;;;1.25;;
12052;SDS011;6087;48.982;12.064;2022-08-03T09:50:21;1.45;;;1.30;;
12052;SDS011;6087;48.982;12.064;2022-08-03T09:52:48;3.15;;;1.20;;
12052;SDS011;6087;48.982;12.064;2022-08-03T09:55:18;1.40;;;1.35;;
12052;SDS011;6087;48.982;12.064;2022-08-03T09:57:47;1.65;;;1.55;;
12052;SDS011;6087;48.982;12.064;2022-08-03T10:00:15;2.13;;;1.67;;
12052;SDS011;6087;48.982;12.064;2022-08-03T10:02:43;2.78;;;1.23;;
12052;SDS011;6087;48.982;12.064;2022-08-03T10:05:19;1.27;;;1.17;;
12052;SDS011;6087;48.982;12.064;2022-08-03T10:08:09;4.43;;;1.70;;
12052;SDS011;6087;48.982;12.064;2022-08-03T10:10:48;1.80;;;1.27;;
12052;SDS011;6087;48.982;12.064;2022-08-03T10:13:18;1.42;;;1.33;;
12052;SDS011;6087;48.982;12.064;2022-08-03T10:15:46;2.20;;;1.30;;
12052;SDS011;6087;48.982;12.064;2022-08-03T10:18:13;1.60;;;1.50;;
12052;SDS011;6087;48.982;12.064;2022-08-03T10:20:42;3.80;;;1.40;;
12052;SDS011;6087;48.982;12.064;2022-08-03T10:23:11;2.55;;;1.20;;
12052;SDS011;6087;48.982;12.064;2022-08-03T10:25:45;2.05;;;1.70;;
12052;SDS011;6087;48.982;12.064;2022-08-03T10:28:17;2.15;;;1.52;;
12052;SDS011;6087;48.982;12.064;2022-08-03T10:30:46;3.47;;;1.50;;
12052;SDS011;6087;48.982;12.064;2022-08-03T10:33:16;2.83;;;1.50;;
12052;SDS011;6087;48.982;12.064;2022-08-03T10:35:44;2.33;;;1.77;;
12052;SDS011;6087;48.982;12.064;2022-08-03T10:38:15;1.70;;;1.60;;
12052;SDS011;6087;48.982;12.064;2022-08-03T10:40:44;4.25;;;1.52;;
12052;SDS011;6087;48.982;12.064;2022-08-03T10:43:17;1.40;;;1.27;;
12052;SDS011;6087;48.982;12.064;2022-08-03T10:45:46;2.15;;;1.70;;
12052;SDS011;6087;48.982;12.064;2022-08-03T10:48:14;2.72;;;1.60;;
12052;SDS011;6087;48.982;12.064;2022-08-03T10:50:42;1.63;;;1.52;;
12052;SDS011;6087;48.982;12.064;2022-08-03T10:53:10;2.88;;;1.48;;
12052;SDS011;6087;48.982;12.064;2022-08-03T10:55:38;2.15;;;1.88;;
12052;SDS011;6087;48.982;12.064;2022-08-03T10:58:46;1.52;;;1.42;;
12052;SDS011;6087;48.982;12.064;2022-08-03T11:01:17;2.35;;;1.50;;
12052;SDS011;6087;48.982;12.064;2022-08-03T11:06:40;3.63;;;1.67;;
12052;SDS011;6087;48.982;12.064;2022-08-03T11:09:13;1.77;;;1.40;;
12052;SDS011;6087;48.982;12.064;2022-08-03T11:11:42;1.60;;;1.50;;
12052;SDS011;6087;48.982;12.064;2022-08-03T11:14:11;1.92;;;1.38;;
12052;SDS011;6087;48.982;12.064;2022-08-03T11:16:40;1.60;;;1.50;;
12052;SDS011;6087;48.982;12.064;2022-08-03T11:19:11;2.10;;;1.35;;
12052;SDS011;6087;48.982;12.064;2022-08-03T11:21:52;1.38;;;1.27;;
12052;SDS011;6087;48.982;12.064;2022-08-03T11:27:29;1.40;;;1.35;;
12052;SDS011;6087;48.982;12.064;2022-08-03T11:30:00;2.92;;;1.42;;
12052;SDS011;6087;48.982;12.064;2022-08-03T11:35:21;1.83;;;1.38;;
12052;SDS011;6087;48.982;12.064;2022-08-03T11:38:01;1.38;;;1.17;;
12052;SDS011;6087;48.982;12.064;2022-08-03T11:40:36;2.33;;;1.65;;
12052;SDS011;6087;48.982;12.064;2022-08-03T11:43:05;1.85;;;1.10;;
12052;SDS011;6087;48.982;12.064;2022-08-03T11:45:35;1.67;;;1.55;;
12052;SDS011;6087;48.982;12.064;2022-08-03T11:48:12;3.92;;;1.52;;
12052;SDS011;6087;48.982;12.064;2022-08-03T11:50:40;2.58;;;1.30;;
12052;SDS011;6087;48.982;12.064;2022-08-03T11:53:12;2.97;;;1.30;;
12052;SDS011;6087;48.982;12.064;2022-08-03T11:55:41;1.50;;;1.40;;
12052;SDS011;6087;48.982;12.064;2022-08-03T11:58:16;1.40;;;1.30;;
12052;SDS011;6087;48.982;12.064;2022-08-03T12:00:45;1.67;;;1.40;;
12052;SDS011;6087;48.982;12.064;2022-08-03T12:03:13;2.75;;;1.38;;
12052;SDS011;6087;48.982;12.064;2022-08-03T12:05:45;1.38;;;1.27;;
12052;SDS011;6087;48.982;12.064;2022-08-03T12:08:14;2.20;;;1.27;;
12052;SDS011;6087;48.982;12.064;2022-08-03T12:10:46;1.10;;;1.00;;
12052;SDS011;6087;48.982;12.064;2022-08-03T12:13:15;2.58;;;1.15;;
12052;SDS011;6087;48.982;12.064;2022-08-03T12:15:43;0.95;;;0.85;;
12052;SDS011;6087;48.982;12.064;2022-08-03T12:18:18;1.63;;;0.93;;
12052;SDS011;6087;48.982;12.064;2022-08-03T12:20:46;1.90;;;1.17;;
12052;SDS011;6087;48.982;12.064;2022-08-03T12:23:14;1.50;;;1.40;;
12052;SDS011;6087;48.982;12.064;2022-08-03T12:25:42;1.23;;;1.20;;
12052;SDS011;6087;48.982;12.064;2022-08-03T12:28:12;1.50;;;1.38;;
12052;SDS011;6087;48.982;12.064;2022-08-03T12:30:43;1.45;;;1.35;;
12052;SDS011;6087;48.982;12.064;2022-08-03T12:33:14;1.20;;;1.02;;
12052;SDS011;6087;48.982;12.064;2022-08-03T12:35:46;1.38;;;1.20;;
12052;SDS011;6087;48.982;12.064;2022-08-03T12:38:19;1.10;;;1.00;;
12052;SDS011;6087;48.982;12.064;2022-08-03T12:40:54;1.52;;;1.42;;
12052;SDS011;6087;48.982;12.064;2022-08-03T12:43:25;1.75;;;1.15;;
12052;SDS011;6087;48.982;12.064;2022-08-03T12:46:05;1.30;;;1.20;;
12052;SDS011;6087;48.982;12.064;2022-08-03T12:48:34;2.30;;;1.30;;
12052;SDS011;6087;48.982;12.064;2022-08-03T12:51:08;1.33;;;1.23;;
12052;SDS011;6087;48.982;12.064;2022-08-03T12:53:35;1.92;;;1.17;;
12052;SDS011;6087;48.982;12.064;2022-08-03T12:56:03;1.30;;;1.23;;
12052;SDS011;6087;48.982;12.064;2022-08-03T12:58:31;3.10;;;1.08;;
12052;SDS011;6087;48.982;12.064;2022-08-03T13:00:59;1.20;;;1.10;;
12052;SDS011;6087;48.982;12.064;2022-08-03T13:03:27;2.92;;;1.15;;
12052;SDS011;6087;48.982;12.064;2022-08-03T13:05:55;1.25;;;1.15;;
12052;SDS011;6087;48.982;12.064;2022-08-03T13:08:23;1.40;;;1.30;;
12052;SDS011;6087;48.982;12.064;2022-08-03T13:10:50;1.10;;;1.10;;
12052;SDS011;6087;48.982;12.064;2022-08-03T13:13:17;1.27;;;1.17;;
12052;SDS011;6087;48.982;12.064;2022-08-03T13:16:02;2.53;;;1.25;;
12052;SDS011;6087;48.982;12.064;2022-08-03T13:18:29;1.05;;;1.05;;
12052;SDS011;6087;48.982;12.064;2022-08-03T13:20:58;1.88;;;1.23;;
12052;SDS011;6087;48.982;12.064;2022-08-03T13:23:25;1.50;;;1.40;;
12052;SDS011;6087;48.982;12.064;2022-08-03T13:25:52;1.50;;;1.40;;
12052;SDS011;6087;48.982;12.064;2022-08-03T13:28:19;2.10;;;1.27;;
12052;SDS011;6087;48.982;12.064;2022-08-03T13:30:46;5.70;;;1.55;;
12052;SDS011;6087;48.982;12.064;2022-08-03T13:33:13;4.15;;;1.50;;
12052;SDS011;6087;48.982;12.064;2022-08-03T13:35:40;1.48;;;1.13;;
12052;SDS011;6087;48.982;12.064;2022-08-03T13:38:08;2.92;;;1.10;;
12052;SDS011;6087;48.982;12.064;2022-08-03T13:40:35;1.02;;;1.02;;
12052;SDS011;6087;48.982;12.064;2022-08-03T13:43:02;3.22;;;1.20;;
12052;SDS011;6087;48.982;12.064;2022-08-03T13:45:29;2.50;;;1.20;;
12052;SDS011;6087;48.982;12.064;2022-08-03T13:47:55;4.13;;;0.85;;
12052;SDS011;6087;48.982;12.064;2022-08-03T13:50:22;1.55;;;1.30;;
12052;SDS011;6087;48.982;12.064;2022-08-03T13:52:49;1.40;;;1.30;;
12052;SDS011;6087;48.982;12.064;2022-08-03T13:55:17;4.10;;;1.30;;
12052;SDS011;6087;48.982;12.064;2022-08-03T13:57:44;1.30;;;1.10;;
12052;SDS011;6087;48.982;12.064;2022-08-03T14:00:12;3.65;;;1.52;;
12052;SDS011;6087;48.982;12.064;2022-08-03T14:02:40;3.50;;;1.23;;
12052;SDS011;6087;48.982;12.064;2022-08-03T14:05:07;1.13;;;1.02;;
12052;SDS011;6087;48.982;12.064;2022-08-03T14:07:34;4.85;;;0.90;;
12052;SDS011;6087;48.982;12.064;2022-08-03T14:10:01;0.93;;;0.93;;
12052;SDS011;6087;48.982;12.064;2022-08-03T14:12:29;4.90;;;1.55;;
12052;SDS011;6087;48.982;12.064;2022-08-03T14:14:56;1.20;;;1.10;;
12052;SDS011;6087;48.982;12.064;2022-08-03T14:17:23;3.10;;;1.10;;
12052;SDS011;6087;48.982;12.064;2022-08-03T14:19:50;3.10;;;1.30;;
12052;SDS011;6087;48.982;12.064;2022-08-03T14:22:16;1.92;;;1.08;;
12052;SDS011;6087;48.982;12.064;2022-08-03T14:24:43;1.20;;;1.10;;
12052;SDS011;6087;48.982;12.064;2022-08-03T14:27:10;0.80;;;0.80;;
12052;SDS011;6087;48.982;12.064;2022-08-03T14:29:39;1.35;;;1.25;;
12052;SDS011;6087;48.982;12.064;2022-08-03T14:32:05;1.55;;;1.15;;
12052;SDS011;6087;48.982;12.064;2022-08-03T14:34:32;2.00;;;1.08;;
12052;SDS011;6087;48.982;12.064;2022-08-03T14:36:59;1.23;;;1.13;;
12052;SDS011;6087;48.982;12.064;2022-08-03T14:39:26;1.20;;;1.10;;
12052;SDS011;6087;48.982;12.064;2022-08-03T14:41:53;2.13;;;1.20;;
12052;SDS011;6087;48.982;12.064;2022-08-03T14:44:20;4.00;;;1.30;;
12052;SDS011;6087;48.982;12.064;2022-08-03T14:46:48;2.35;;;1.02;;
12052;SDS011;6087;48.982;12.064;2022-08-03T14:49:15;2.08;;;1.15;;
12052;SDS011;6087;48.982;12.064;2022-08-03T14:51:42;1.75;;;1.50;;
12052;SDS011;6087;48.982;12.064;2022-08-03T14:54:09;2.45;;;1.30;;
12052;SDS011;6087;48.982;12.064;2022-08-03T14:56:36;1.63;;;1.27;;
12052;SDS011;6087;48.982;12.064;2022-08-03T14:59:02;1.05;;;1.05;;
12052;SDS011;6087;48.982;12.064;2022-08-03T15:01:29;1.15;;;1.10;;
12052;SDS011;6087;48.982;12.064;2022-08-03T15:03:58;0.98;;;0.98;;
12052;SDS011;6087;48.982;12.064;2022-08-03T15:06:25;1.02;;;1.02;;
12052;SDS011;6087;48.982;12.064;2022-08-03T15:08:52;1.80;;;1.15;;